GAP425 RPVE-RPLL
Flight info
| Callsign | GAP425 |
|---|---|
| Flight time | 0h 50m |
| Altitude | 24000 |
| Route | MINOR8A MINOR B473 LAIYA LAIYA7R |
| Aircraft | A320/M-SDE3FGHIRWY/LB1 |
Departure
| Time | 2026-05-04 13:12 |
|---|---|
| Airport | Godofredo P. Ramos Airport (RPVE) |
Arrival
| Time | 2026-05-04 14:02 |
|---|---|
| Airport | Ninoy Aquino International Airport (RPLL) |
| Time | Latitude | Longitude | Altitude | Speed | Heading |
|---|---|---|---|---|---|
| 2026-05-04 13:00 | 11.92696 | 121.96461 | 30 ft | 0 kts | 153° |
| 2026-05-04 13:04 | 11.92707 | 121.96455 | 30 ft | 2 kts | 153° |
| 2026-05-04 13:04 | 11.92720 | 121.96448 | 30 ft | 2 kts | 153° |
| 2026-05-04 13:04 | 11.92735 | 121.96444 | 30 ft | 2 kts | 185° |
| 2026-05-04 13:05 | 11.92750 | 121.96448 | 30 ft | 2 kts | 213° |
| 2026-05-04 13:05 | 11.92759 | 121.96458 | 30 ft | 0 kts | 239° |
| 2026-05-04 13:05 | 11.92762 | 121.96464 | 30 ft | 1 kts | 244° |
| 2026-05-04 13:05 | 11.92763 | 121.96465 | 30 ft | 0 kts | 243° |
| 2026-05-04 13:07 | 11.92757 | 121.96455 | 30 ft | 3 kts | 243° |
| 2026-05-04 13:07 | 11.92740 | 121.96420 | 30 ft | 7 kts | 242° |
| 2026-05-04 13:07 | 11.92712 | 121.96363 | 30 ft | 10 kts | 243° |
| 2026-05-04 13:08 | 11.92672 | 121.96286 | 30 ft | 13 kts | 243° |
| 2026-05-04 13:08 | 11.92653 | 121.96193 | 30 ft | 14 kts | 310° |
| 2026-05-04 13:08 | 11.92742 | 121.96143 | 30 ft | 14 kts | 333° |
| 2026-05-04 13:08 | 11.92793 | 121.96072 | 30 ft | 14 kts | 256° |
| 2026-05-04 13:09 | 11.92750 | 121.95982 | 30 ft | 14 kts | 243° |
| 2026-05-04 13:09 | 11.92702 | 121.95886 | 30 ft | 16 kts | 243° |
| 2026-05-04 13:09 | 11.92643 | 121.95772 | 30 ft | 20 kts | 242° |
| 2026-05-04 13:09 | 11.92565 | 121.95622 | 30 ft | 27 kts | 242° |
| 2026-05-04 13:10 | 11.92474 | 121.95433 | 30 ft | 31 kts | 242° |
| 2026-05-04 13:10 | 11.92365 | 121.95218 | 30 ft | 36 kts | 243° |
| 2026-05-04 13:10 | 11.92260 | 121.95047 | 30 ft | 18 kts | 217° |
| 2026-05-04 13:10 | 11.92265 | 121.94992 | 30 ft | 11 kts | 28° |
| 2026-05-04 13:11 | 11.92283 | 121.95052 | 30 ft | 0 kts | 65° |
| 2026-05-04 13:11 | 11.92287 | 121.95060 | 30 ft | 7 kts | 65° |
| 2026-05-04 13:11 | 11.92447 | 121.95380 | 30 ft | 95 kts | 62° |
| 2026-05-04 13:12 | 11.92866 | 121.96219 | 106 ft | 159 kts | 64° |
| 2026-05-04 13:12 | 11.93352 | 121.97257 | 817 ft | 167 kts | 64° |
| 2026-05-04 13:12 | 11.93859 | 121.98266 | 1848 ft | 161 kts | 63° |
| 2026-05-04 13:12 | 11.94365 | 121.99258 | 2513 ft | 165 kts | 63° |
| 2026-05-04 13:13 | 11.94916 | 122.00342 | 2984 ft | 182 kts | 63° |
| 2026-05-04 13:13 | 11.95533 | 122.01560 | 3397 ft | 204 kts | 63° |
| 2026-05-04 13:13 | 11.96379 | 122.02786 | 3894 ft | 225 kts | 44° |
| 2026-05-04 13:13 | 11.97756 | 122.03685 | 4475 ft | 244 kts | 29° |
| 2026-05-04 13:14 | 11.99330 | 122.04474 | 5055 ft | 261 kts | 28° |
| 2026-05-04 13:14 | 12.00977 | 122.05290 | 5824 ft | 268 kts | 28° |
| 2026-05-04 13:14 | 12.02664 | 122.06132 | 6689 ft | 272 kts | 27° |
| 2026-05-04 13:14 | 12.04370 | 122.06989 | 7544 ft | 276 kts | 27° |
| 2026-05-04 13:15 | 12.06072 | 122.07848 | 8369 ft | 279 kts | 27° |
| 2026-05-04 13:15 | 12.07825 | 122.08734 | 9169 ft | 282 kts | 27° |
| 2026-05-04 13:15 | 12.09594 | 122.09631 | 9930 ft | 286 kts | 27° |
| 2026-05-04 13:15 | 12.11386 | 122.10532 | 10560 ft | 294 kts | 27° |
| 2026-05-04 13:16 | 12.13282 | 122.11484 | 10932 ft | 311 kts | 27° |
| 2026-05-04 13:16 | 12.15292 | 122.12497 | 11264 ft | 329 kts | 27° |
| 2026-05-04 13:16 | 12.17379 | 122.13551 | 11775 ft | 338 kts | 28° |
| 2026-05-04 13:16 | 12.19499 | 122.14623 | 12448 ft | 341 kts | 28° |
| 2026-05-04 13:17 | 12.21655 | 122.15714 | 13090 ft | 345 kts | 28° |
| 2026-05-04 13:17 | 12.23802 | 122.16801 | 13717 ft | 348 kts | 28° |
| 2026-05-04 13:17 | 12.25977 | 122.17905 | 14325 ft | 352 kts | 28° |
| 2026-05-04 13:17 | 12.28182 | 122.19025 | 14914 ft | 355 kts | 28° |
| 2026-05-04 13:18 | 12.30416 | 122.20158 | 15502 ft | 358 kts | 29° |
| 2026-05-04 13:18 | 12.32639 | 122.21287 | 16061 ft | 362 kts | 28° |
| 2026-05-04 13:18 | 12.35016 | 122.22189 | 16578 ft | 370 kts | 12° |
| 2026-05-04 13:18 | 12.37635 | 122.22192 | 17121 ft | 378 kts | 351° |
| 2026-05-04 13:19 | 12.40099 | 122.21260 | 17643 ft | 386 kts | 331° |
| 2026-05-04 13:19 | 12.42367 | 122.19722 | 18201 ft | 389 kts | 327° |
| 2026-05-04 13:19 | 12.44590 | 122.18154 | 18707 ft | 393 kts | 327° |
| 2026-05-04 13:19 | 12.46858 | 122.16555 | 19243 ft | 395 kts | 327° |
| 2026-05-04 13:20 | 12.49136 | 122.14957 | 19751 ft | 398 kts | 327° |
| 2026-05-04 13:20 | 12.51418 | 122.13361 | 20232 ft | 401 kts | 327° |
| 2026-05-04 13:20 | 12.53736 | 122.11746 | 20716 ft | 403 kts | 327° |
| 2026-05-04 13:20 | 12.56058 | 122.10130 | 21199 ft | 406 kts | 327° |
| 2026-05-04 13:21 | 12.58422 | 122.08485 | 21665 ft | 409 kts | 327° |
| 2026-05-04 13:21 | 12.60760 | 122.06859 | 22112 ft | 412 kts | 327° |
| 2026-05-04 13:21 | 12.63166 | 122.05185 | 22583 ft | 414 kts | 327° |
| 2026-05-04 13:21 | 12.65542 | 122.03533 | 23026 ft | 417 kts | 327° |
| 2026-05-04 13:22 | 12.67938 | 122.01865 | 23450 ft | 420 kts | 327° |
| 2026-05-04 13:22 | 12.70390 | 122.00159 | 23801 ft | 424 kts | 327° |
| 2026-05-04 13:22 | 12.72837 | 121.98456 | 23889 ft | 424 kts | 327° |
| 2026-05-04 13:22 | 12.75256 | 121.96770 | 23897 ft | 423 kts | 327° |
| 2026-05-04 13:23 | 12.77708 | 121.95063 | 23900 ft | 422 kts | 327° |
| 2026-05-04 13:23 | 12.80147 | 121.93362 | 23901 ft | 423 kts | 327° |
| 2026-05-04 13:23 | 12.82568 | 121.91677 | 23904 ft | 422 kts | 327° |
| 2026-05-04 13:23 | 12.85009 | 121.89976 | 23906 ft | 423 kts | 327° |
| 2026-05-04 13:24 | 12.87426 | 121.88292 | 23906 ft | 423 kts | 326° |
| 2026-05-04 13:24 | 12.89876 | 121.86584 | 23905 ft | 423 kts | 326° |
| 2026-05-04 13:24 | 12.92298 | 121.84893 | 23904 ft | 423 kts | 327° |
| 2026-05-04 13:25 | 12.97181 | 121.81485 | 23909 ft | 423 kts | 327° |
| 2026-05-04 13:25 | 12.99630 | 121.79775 | 23912 ft | 423 kts | 327° |
| 2026-05-04 13:25 | 13.02050 | 121.78085 | 23913 ft | 423 kts | 327° |
| 2026-05-04 13:25 | 13.04475 | 121.76392 | 23916 ft | 423 kts | 327° |
| 2026-05-04 13:26 | 13.06926 | 121.74681 | 23919 ft | 423 kts | 327° |
| 2026-05-04 13:26 | 13.09348 | 121.72987 | 23920 ft | 423 kts | 327° |
| 2026-05-04 13:26 | 13.11796 | 121.71281 | 23919 ft | 423 kts | 327° |
| 2026-05-04 13:26 | 13.14238 | 121.69585 | 23919 ft | 422 kts | 327° |
| 2026-05-04 13:27 | 13.16684 | 121.67883 | 23923 ft | 422 kts | 327° |
| 2026-05-04 13:27 | 13.19100 | 121.66199 | 23921 ft | 422 kts | 326° |
| 2026-05-04 13:27 | 13.21556 | 121.64483 | 23923 ft | 422 kts | 326° |
| 2026-05-04 13:27 | 13.23961 | 121.62801 | 23925 ft | 423 kts | 326° |
| 2026-05-04 13:28 | 13.26415 | 121.61083 | 23925 ft | 423 kts | 326° |
| 2026-05-04 13:28 | 13.28024 | 121.59957 | 23926 ft | 423 kts | 326° |
| 2026-05-04 13:28 | 13.31278 | 121.57677 | 23925 ft | 424 kts | 326° |
| 2026-05-04 13:28 | 13.33713 | 121.55971 | 23925 ft | 423 kts | 326° |
| 2026-05-04 13:29 | 13.36142 | 121.54268 | 23927 ft | 424 kts | 326° |
| 2026-05-04 13:29 | 13.38607 | 121.52540 | 23928 ft | 424 kts | 326° |
| 2026-05-04 13:29 | 13.41020 | 121.50846 | 23928 ft | 424 kts | 326° |
| 2026-05-04 13:29 | 13.43476 | 121.49123 | 23930 ft | 423 kts | 326° |
| 2026-05-04 13:30 | 13.45890 | 121.47430 | 23931 ft | 423 kts | 326° |
| 2026-05-04 13:30 | 13.48348 | 121.45703 | 23934 ft | 423 kts | 326° |
| 2026-05-04 13:30 | 13.50784 | 121.43990 | 23936 ft | 424 kts | 326° |
| 2026-05-04 13:30 | 13.53217 | 121.42277 | 23936 ft | 427 kts | 326° |
| 2026-05-04 13:31 | 13.55680 | 121.40546 | 23936 ft | 432 kts | 326° |
| 2026-05-04 13:31 | 13.58152 | 121.38797 | 23934 ft | 426 kts | 325° |
| 2026-05-04 13:31 | 13.60548 | 121.37037 | 23937 ft | 425 kts | 324° |
| 2026-05-04 13:31 | 13.62942 | 121.35253 | 23939 ft | 425 kts | 324° |
| 2026-05-04 13:32 | 13.65340 | 121.33453 | 23942 ft | 424 kts | 324° |
| 2026-05-04 13:32 | 13.67712 | 121.31666 | 23945 ft | 424 kts | 324° |
| 2026-05-04 13:32 | 13.70102 | 121.29868 | 23946 ft | 424 kts | 324° |
| 2026-05-04 13:32 | 13.72490 | 121.28082 | 23945 ft | 423 kts | 325° |
| 2026-05-04 13:33 | 13.75038 | 121.26569 | 23751 ft | 417 kts | 338° |
| 2026-05-04 13:33 | 13.77787 | 121.25776 | 23251 ft | 412 kts | 352° |
| 2026-05-04 13:33 | 13.80653 | 121.25459 | 22680 ft | 410 kts | 356° |
| 2026-05-04 13:33 | 13.83490 | 121.25245 | 22122 ft | 408 kts | 358° |
| 2026-05-04 13:34 | 13.86300 | 121.25040 | 21600 ft | 405 kts | 358° |
| 2026-05-04 13:34 | 13.89110 | 121.24833 | 21106 ft | 402 kts | 358° |
| 2026-05-04 13:34 | 13.91894 | 121.24626 | 20622 ft | 398 kts | 357° |
| 2026-05-04 13:34 | 13.94661 | 121.24425 | 20128 ft | 394 kts | 358° |
| 2026-05-04 13:35 | 13.97381 | 121.24223 | 19637 ft | 391 kts | 357° |
| 2026-05-04 13:35 | 14.02782 | 121.23812 | 18657 ft | 384 kts | 358° |
| 2026-05-04 13:35 | 14.05420 | 121.23605 | 18175 ft | 381 kts | 358° |
| 2026-05-04 13:36 | 14.08080 | 121.23395 | 17677 ft | 378 kts | 357° |
| 2026-05-04 13:36 | 14.10677 | 121.23186 | 17180 ft | 375 kts | 358° |
| 2026-05-04 13:36 | 14.13278 | 121.22970 | 16680 ft | 372 kts | 357° |
| 2026-05-04 13:36 | 14.15873 | 121.22759 | 16193 ft | 369 kts | 357° |
| 2026-05-04 13:37 | 14.18411 | 121.22552 | 15714 ft | 366 kts | 357° |
| 2026-05-04 13:37 | 14.20940 | 121.22350 | 15227 ft | 363 kts | 357° |
| 2026-05-04 13:37 | 14.23455 | 121.22150 | 14733 ft | 360 kts | 358° |
| 2026-05-04 13:37 | 14.25934 | 121.21954 | 14239 ft | 357 kts | 358° |
| 2026-05-04 13:38 | 14.28436 | 121.21753 | 13743 ft | 354 kts | 357° |
| 2026-05-04 13:38 | 14.30883 | 121.21555 | 13267 ft | 351 kts | 358° |
| 2026-05-04 13:38 | 14.33294 | 121.21518 | 12781 ft | 346 kts | 10° |
| 2026-05-04 13:38 | 14.35531 | 121.22278 | 12320 ft | 338 kts | 31° |
| 2026-05-04 13:39 | 14.37307 | 121.23834 | 11879 ft | 330 kts | 53° |
| 2026-05-04 13:39 | 14.38331 | 121.25902 | 11413 ft | 326 kts | 75° |
| 2026-05-04 13:39 | 14.38494 | 121.28199 | 10934 ft | 325 kts | 96° |
| 2026-05-04 13:39 | 14.37760 | 121.30385 | 10474 ft | 325 kts | 119° |
| 2026-05-04 13:40 | 14.36221 | 121.32071 | 10244 ft | 320 kts | 143° |
| 2026-05-04 13:40 | 14.34193 | 121.32949 | 10067 ft | 314 kts | 167° |
| 2026-05-04 13:40 | 14.32039 | 121.33131 | 9895 ft | 306 kts | 175° |
| 2026-05-04 13:40 | 14.29915 | 121.33142 | 9592 ft | 301 kts | 177° |
| 2026-05-04 13:41 | 14.27815 | 121.33118 | 9209 ft | 300 kts | 178° |
| 2026-05-04 13:41 | 14.25781 | 121.32832 | 9018 ft | 301 kts | 198° |
| 2026-05-04 13:41 | 14.23976 | 121.31660 | 9014 ft | 306 kts | 225° |
| 2026-05-04 13:42 | 14.22416 | 121.27673 | 9013 ft | 306 kts | 265° |
| 2026-05-04 13:42 | 14.22223 | 121.25509 | 9020 ft | 306 kts | 267° |
| 2026-05-04 13:42 | 14.22061 | 121.23289 | 9017 ft | 307 kts | 267° |
| 2026-05-04 13:42 | 14.21909 | 121.21115 | 9017 ft | 307 kts | 268° |
| 2026-05-04 13:43 | 14.21755 | 121.18919 | 9019 ft | 307 kts | 268° |
| 2026-05-04 13:43 | 14.21601 | 121.16709 | 9022 ft | 307 kts | 268° |
| 2026-05-04 13:43 | 14.21449 | 121.14534 | 9016 ft | 306 kts | 268° |
| 2026-05-04 13:43 | 14.21294 | 121.12368 | 8808 ft | 303 kts | 268° |
| 2026-05-04 13:44 | 14.21140 | 121.10204 | 8393 ft | 303 kts | 268° |
| 2026-05-04 13:44 | 14.20988 | 121.08047 | 8005 ft | 301 kts | 268° |
| 2026-05-04 13:44 | 14.20839 | 121.05915 | 7655 ft | 298 kts | 268° |
| 2026-05-04 13:44 | 14.20692 | 121.03800 | 7303 ft | 296 kts | 268° |
| 2026-05-04 13:45 | 14.20548 | 121.01691 | 6938 ft | 293 kts | 268° |
| 2026-05-04 13:45 | 14.20408 | 120.99609 | 6585 ft | 290 kts | 268° |
| 2026-05-04 13:45 | 14.20272 | 120.97535 | 6222 ft | 288 kts | 268° |
| 2026-05-04 13:45 | 14.20138 | 120.95506 | 6038 ft | 285 kts | 268° |
| 2026-05-04 13:46 | 14.19999 | 120.93436 | 6028 ft | 289 kts | 268° |
| 2026-05-04 13:46 | 14.19859 | 120.91378 | 6026 ft | 289 kts | 268° |
| 2026-05-04 13:46 | 14.19721 | 120.89302 | 6015 ft | 286 kts | 268° |
| 2026-05-04 13:46 | 14.19590 | 120.87320 | 5912 ft | 274 kts | 268° |
| 2026-05-04 13:47 | 14.19461 | 120.85387 | 5748 ft | 265 kts | 268° |
| 2026-05-04 13:47 | 14.19343 | 120.83534 | 5585 ft | 256 kts | 268° |
| 2026-05-04 13:47 | 14.19231 | 120.81737 | 5430 ft | 248 kts | 268° |
| 2026-05-04 13:47 | 14.19122 | 120.79977 | 5272 ft | 240 kts | 268° |
| 2026-05-04 13:48 | 14.19020 | 120.78301 | 5114 ft | 232 kts | 268° |
| 2026-05-04 13:48 | 14.18919 | 120.76650 | 5019 ft | 228 kts | 268° |
| 2026-05-04 13:48 | 14.18821 | 120.75021 | 5016 ft | 230 kts | 268° |
| 2026-05-04 13:48 | 14.18723 | 120.73370 | 5012 ft | 230 kts | 268° |
| 2026-05-04 13:49 | 14.18608 | 120.71725 | 5005 ft | 230 kts | 262° |
| 2026-05-04 13:49 | 14.18081 | 120.70171 | 5006 ft | 232 kts | 242° |
| 2026-05-04 13:49 | 14.17289 | 120.68735 | 5007 ft | 232 kts | 239° |
| 2026-05-04 13:49 | 14.16436 | 120.67302 | 5007 ft | 232 kts | 238° |
| 2026-05-04 13:50 | 14.15692 | 120.65833 | 4986 ft | 231 kts | 258° |
| 2026-05-04 13:50 | 14.15821 | 120.64239 | 4976 ft | 222 kts | 302° |
| 2026-05-04 13:50 | 14.16845 | 120.63109 | 5013 ft | 218 kts | 326° |
| 2026-05-04 13:50 | 14.17950 | 120.62020 | 5000 ft | 224 kts | 304° |
| 2026-05-04 13:51 | 14.18714 | 120.60587 | 5012 ft | 225 kts | 307° |
| 2026-05-04 13:51 | 14.19866 | 120.59605 | 4966 ft | 213 kts | 348° |
| 2026-05-04 13:51 | 14.21277 | 120.59706 | 4976 ft | 203 kts | 32° |
| 2026-05-04 13:51 | 14.22298 | 120.60702 | 5027 ft | 204 kts | 52° |
| 2026-05-04 13:52 | 14.24343 | 120.62767 | 5011 ft | 206 kts | 40° |
| 2026-05-04 13:52 | 14.25492 | 120.63656 | 5006 ft | 207 kts | 37° |
| 2026-05-04 13:52 | 14.26692 | 120.64510 | 5004 ft | 206 kts | 36° |
| 2026-05-04 13:53 | 14.27898 | 120.65332 | 5007 ft | 207 kts | 35° |
| 2026-05-04 13:53 | 14.29096 | 120.66135 | 5006 ft | 206 kts | 37° |
| 2026-05-04 13:53 | 14.30046 | 120.67209 | 4984 ft | 204 kts | 69° |
| 2026-05-04 13:54 | 14.30509 | 120.70112 | 5006 ft | 206 kts | 69° |
| 2026-05-04 13:54 | 14.31302 | 120.71320 | 5004 ft | 205 kts | 40° |
| 2026-05-04 13:54 | 14.33986 | 120.72446 | 5013 ft | 208 kts | 28° |
| 2026-05-04 13:55 | 14.35054 | 120.73396 | 4998 ft | 204 kts | 58° |
| 2026-05-04 13:55 | 14.36435 | 120.75929 | 5002 ft | 200 kts | 61° |
| 2026-05-04 13:55 | 14.37130 | 120.77211 | 5007 ft | 205 kts | 60° |
| 2026-05-04 13:56 | 14.37788 | 120.78411 | 5009 ft | 205 kts | 60° |
| 2026-05-04 13:56 | 14.38487 | 120.79676 | 4994 ft | 196 kts | 60° |
| 2026-05-04 13:56 | 14.39846 | 120.82115 | 4994 ft | 201 kts | 60° |
| 2026-05-04 13:57 | 14.40519 | 120.83323 | 4888 ft | 190 kts | 60° |
| 2026-05-04 13:57 | 14.41175 | 120.84501 | 4665 ft | 185 kts | 60° |
| 2026-05-04 13:58 | 14.42893 | 120.87588 | 4070 ft | 149 kts | 61° |
| 2026-05-04 13:58 | 14.43880 | 120.89368 | 3359 ft | 138 kts | 62° |
| 2026-05-04 13:58 | 14.44352 | 120.90219 | 3051 ft | 134 kts | 63° |
| 2026-05-04 13:59 | 14.44814 | 120.91075 | 2695 ft | 138 kts | 62° |
| 2026-05-04 13:59 | 14.45267 | 120.91918 | 2409 ft | 136 kts | 62° |
| 2026-05-04 13:59 | 14.46248 | 120.93638 | 1547 ft | 140 kts | 61° |
| 2026-05-04 14:00 | 14.46724 | 120.94486 | 1261 ft | 133 kts | 60° |
| 2026-05-04 14:00 | 14.47642 | 120.96144 | 919 ft | 132 kts | 62° |
| 2026-05-04 14:00 | 14.48098 | 120.96967 | 757 ft | 132 kts | 61° |
| 2026-05-04 14:01 | 14.48554 | 120.97791 | 587 ft | 131 kts | 60° |
| 2026-05-04 14:01 | 14.49006 | 120.98603 | 418 ft | 131 kts | 62° |
| 2026-05-04 14:01 | 14.49912 | 121.00223 | 129 ft | 128 kts | 61° |
| 2026-05-04 14:02 | 14.50332 | 121.00992 | 82 ft | 106 kts | 61° |
| 2026-05-04 14:02 | 14.50612 | 121.01506 | 82 ft | 63 kts | 61° |
| 2026-05-04 14:02 | 14.50822 | 121.01882 | 82 ft | 56 kts | 60° |
| 2026-05-04 14:02 | 14.50985 | 121.02158 | 82 ft | 34 kts | 47° |
| 2026-05-04 14:03 | 14.51138 | 121.02297 | 82 ft | 22 kts | 25° |
| 2026-05-04 14:03 | 14.51179 | 121.02236 | 82 ft | 7 kts | 243° |
| 2026-05-04 14:03 | 14.51151 | 121.02185 | 82 ft | 8 kts | 239° |
| 2026-05-04 14:03 | 14.51118 | 121.02126 | 82 ft | 10 kts | 239° |
| 2026-05-04 14:04 | 14.51084 | 121.02064 | 82 ft | 1 kts | 240° |
| 2026-05-04 14:04 | 14.51080 | 121.02058 | 82 ft | 1 kts | 240° |
| 2026-05-04 14:04 | 14.51077 | 121.02052 | 82 ft | 0 kts | 240° |
| 2026-05-04 14:05 | 14.51067 | 121.02034 | 82 ft | 5 kts | 240° |
| 2026-05-04 14:05 | 14.51038 | 121.01983 | 82 ft | 11 kts | 240° |
| 2026-05-04 14:05 | 14.50989 | 121.01895 | 82 ft | 16 kts | 240° |
| 2026-05-04 14:06 | 14.50926 | 121.01781 | 82 ft | 19 kts | 239° |
| 2026-05-04 14:06 | 14.50893 | 121.01671 | 82 ft | 14 kts | 301° |
| 2026-05-04 14:06 | 14.50895 | 121.01575 | 82 ft | 14 kts | 240° |
| 2026-05-04 14:06 | 14.50843 | 121.01483 | 82 ft | 15 kts | 242° |
| 2026-05-04 14:07 | 14.50800 | 121.01405 | 82 ft | 12 kts | 240° |
| 2026-05-04 14:07 | 14.50810 | 121.01337 | 82 ft | 12 kts | 335° |
| 2026-05-04 14:07 | 14.50857 | 121.01314 | 82 ft | 2 kts | 331° |
| 2026-05-04 14:07 | 14.50870 | 121.01306 | 82 ft | 1 kts | 331° |